Time;durP1;ratioP1;P1;durP2;ratioP2;P2;SDS_P1;SDS_P2;PMS_P1;PMS_P2;Temp;Humidity;BMP_temperature;BMP_pressure;BME280_temperature;BME280_humidity;BME280_pressure;Samples;Min_cycle;Max_cycle;Signal;HPM_P1;HPM_P2
2021/09/27 00:01:40;;;;;;;17.00;15.30;;;;;;;;;;5076191;28;20476;-73
2021/09/27 00:04:08;;;;;;;18.00;16.20;;;;;;;;;;5076131;28;20459;-73
2021/09/27 00:06:35;;;;;;;21.77;17.30;;;;;;;;;;5076090;28;20488;-72
2021/09/27 00:09:02;;;;;;;18.37;16.47;;;;;;;;;;5075776;28;20453;-72
2021/09/27 00:11:29;;;;;;;20.10;17.40;;;;;;;;;;5075199;28;20445;-73
2021/09/27 00:13:59;;;;;;;22.73;17.63;;;;;;;;;;5075827;28;21007;-72
2021/09/27 00:16:27;;;;;;;19.17;17.17;;;;;;;;;;5076661;28;20467;-72
2021/09/27 00:18:56;;;;;;;20.83;18.73;;;;;;;;;;5076023;28;20496;-73
2021/09/27 00:21:25;;;;;;;21.00;17.93;;;;;;;;;;5075712;28;21018;-73
2021/09/27 00:23:52;;;;;;;20.80;18.00;;;;;;;;;;5075964;28;20440;-73
2021/09/27 00:26:20;;;;;;;18.73;16.73;;;;;;;;;;5075536;28;20469;-73
2021/09/27 00:28:48;;;;;;;19.57;17.47;;;;;;;;;;5075609;28;20475;-73
2021/09/27 00:31:16;;;;;;;20.90;18.50;;;;;;;;;;5075825;28;20786;-73
2021/09/27 00:33:43;;;;;;;20.23;17.80;;;;;;;;;;5075422;28;20440;-73
2021/09/27 00:36:12;;;;;;;19.93;17.90;;;;;;;;;;5075709;28;20448;-73
2021/09/27 00:38:39;;;;;;;20.70;18.57;;;;;;;;;;5075333;28;20442;-73
2021/09/27 00:41:07;;;;;;;22.80;19.20;;;;;;;;;;5075682;28;20454;-72
2021/09/27 00:43:35;;;;;;;20.73;17.43;;;;;;;;;;5075278;28;20452;-73
2021/09/27 00:46:04;;;;;;;24.83;19.70;;;;;;;;;;5075479;28;20823;-73
2021/09/27 00:48:32;;;;;;;21.37;19.10;;;;;;;;;;5075813;28;20532;-72
2021/09/27 00:51:01;;;;;;;24.50;19.97;;;;;;;;;;5075916;28;20438;-73
2021/09/27 00:53:33;;;;;;;23.70;19.67;;;;;;;;;;5075440;28;20966;-73
2021/09/27 00:56:00;;;;;;;23.30;18.50;;;;;;;;;;5075102;28;20471;-72
2021/09/27 00:58:28;;;;;;;23.10;19.90;;;;;;;;;;5075186;28;20453;-73
2021/09/27 01:00:55;;;;;;;26.07;19.30;;;;;;;;;;5075210;28;20524;-73
2021/09/27 01:03:23;;;;;;;25.20;20.97;;;;;;;;;;5074737;28;20455;-73
2021/09/27 01:05:52;;;;;;;21.77;19.40;;;;;;;;;;5075381;28;20463;-73
2021/09/27 01:08:24;;;;;;;24.30;19.53;;;;;;;;;;5075140;28;20442;-73
2021/09/27 01:11:03;;;;;;;22.00;19.70;;;;;;;;;;5074856;28;20917;-73
2021/09/27 01:13:39;;;;;;;23.03;20.27;;;;;;;;;;5074779;28;20525;-72
2021/09/27 01:16:14;;;;;;;22.40;19.60;;;;;;;;;;5075619;28;20532;-73
2021/09/27 01:18:49;;;;;;;24.97;21.80;;;;;;;;;;5075031;28;20780;-73
2021/09/27 01:21:27;;;;;;;24.40;21.20;;;;;;;;;;5074754;28;20475;-73
2021/09/27 01:24:14;;;;;;;26.37;21.70;;;;;;;;;;5074855;28;20434;-73
2021/09/27 01:26:57;;;;;;;25.00;22.30;;;;;;;;;;5074904;28;20531;-72
2021/09/27 01:29:42;;;;;;;27.23;22.80;;;;;;;;;;5074853;28;20965;-73
2021/09/27 01:32:24;;;;;;;26.83;21.77;;;;;;;;;;5075104;28;20433;-73
2021/09/27 01:34:55;;;;;;;25.20;22.07;;;;;;;;;;5074979;28;20436;-73
2021/09/27 01:37:26;;;;;;;22.93;20.53;;;;;;;;;;5074611;28;20441;-72
2021/09/27 01:39:57;;;;;;;24.77;20.50;;;;;;;;;;5074354;28;20433;-73
2021/09/27 01:42:30;;;;;;;22.80;20.03;;;;;;;;;;5074712;28;20447;-73
2021/09/27 01:45:00;;;;;;;23.63;21.10;;;;;;;;;;5074732;28;20434;-72
2021/09/27 01:47:32;;;;;;;22.73;19.70;;;;;;;;;;5074014;28;20480;-73
2021/09/27 01:50:04;;;;;;;22.73;20.33;;;;;;;;;;5074059;28;20433;-73
2021/09/27 01:52:35;;;;;;;26.13;21.00;;;;;;;;;;5074475;28;20427;-73
2021/09/27 01:55:04;;;;;;;26.07;21.50;;;;;;;;;;5074341;28;20428;-72
2021/09/27 01:57:34;;;;;;;26.57;22.10;;;;;;;;;;5074169;28;20551;-73
2021/09/27 02:00:06;;;;;;;24.43;20.73;;;;;;;;;;5073825;28;20441;-73
2021/09/27 02:02:39;;;;;;;23.53;21.17;;;;;;;;;;5074150;28;20442;-73
2021/09/27 02:05:11;;;;;;;23.70;21.07;;;;;;;;;;5074303;28;20431;-73
2021/09/27 02:07:43;;;;;;;23.70;20.37;;;;;;;;;;5073979;28;20529;-74
2021/09/27 02:10:12;;;;;;;25.67;21.90;;;;;;;;;;5074119;28;20519;-73
2021/09/27 02:12:42;;;;;;;26.50;21.10;;;;;;;;;;5073590;28;20437;-73
2021/09/27 02:15:13;;;;;;;26.73;21.10;;;;;;;;;;5074147;28;20445;-73
2021/09/27 02:17:44;;;;;;;27.17;22.73;;;;;;;;;;5073811;28;20450;-73
2021/09/27 02:20:16;;;;;;;24.43;21.80;;;;;;;;;;5073937;28;20453;-72
2021/09/27 02:22:46;;;;;;;25.70;21.60;;;;;;;;;;5073855;28;20429;-73
2021/09/27 02:25:16;;;;;;;25.53;22.10;;;;;;;;;;5073854;28;20775;-73
2021/09/27 02:27:44;;;;;;;28.03;22.83;;;;;;;;;;5073722;28;20498;-73
2021/09/27 02:30:13;;;;;;;29.27;23.63;;;;;;;;;;5073536;28;20472;-73
2021/09/27 02:32:45;;;;;;;26.93;23.83;;;;;;;;;;5072760;28;20454;-73
2021/09/27 02:35:14;;;;;;;26.90;24.00;;;;;;;;;;5073905;28;20994;-72
2021/09/27 02:37:46;;;;;;;25.67;21.63;;;;;;;;;;5073662;28;20915;-73
2021/09/27 02:40:15;;;;;;;26.50;22.33;;;;;;;;;;5074153;28;20428;-73
2021/09/27 02:42:46;;;;;;;26.20;22.30;;;;;;;;;;5073545;28;20446;-72
2021/09/27 02:45:14;;;;;;;29.93;24.40;;;;;;;;;;5073264;28;20956;-73
2021/09/27 02:47:46;;;;;;;26.77;22.87;;;;;;;;;;5073515;28;20480;-72
2021/09/27 02:50:13;;;;;;;25.50;21.90;;;;;;;;;;5074070;28;20914;-72
2021/09/27 02:52:41;;;;;;;27.63;22.90;;;;;;;;;;5073147;28;20964;-72
2021/09/27 02:55:11;;;;;;;28.70;22.97;;;;;;;;;;5073135;28;20921;-72
2021/09/27 02:57:46;;;;;;;26.10;22.23;;;;;;;;;;5073417;28;20440;-72
2021/09/27 03:00:17;;;;;;;31.80;23.87;;;;;;;;;;5073614;28;20780;-72
2021/09/27 03:02:49;;;;;;;24.57;22.00;;;;;;;;;;5073094;28;20429;-72
2021/09/27 03:05:20;;;;;;;28.33;22.90;;;;;;;;;;5073611;28;20433;-72
2021/09/27 03:07:55;;;;;;;25.00;22.40;;;;;;;;;;5072994;28;20534;-72
2021/09/27 03:10:32;;;;;;;24.80;21.87;;;;;;;;;;5073357;28;20430;-72
2021/09/27 03:13:06;;;;;;;26.40;23.47;;;;;;;;;;5073250;28;20432;-72
2021/09/27 03:15:49;;;;;;;25.67;21.83;;;;;;;;;;5073392;28;20432;-73
2021/09/27 03:18:28;;;;;;;25.87;21.57;;;;;;;;;;5072972;28;20434;-74
2021/09/27 03:21:09;;;;;;;25.50;22.53;;;;;;;;;;5072998;28;20906;-74
2021/09/27 03:23:40;;;;;;;26.53;20.80;;;;;;;;;;5074029;28;20430;-72
2021/09/27 03:26:10;;;;;;;24.87;22.20;;;;;;;;;;5072838;28;20426;-72
2021/09/27 03:28:42;;;;;;;25.27;21.27;;;;;;;;;;5072656;28;20490;-72
2021/09/27 03:31:14;;;;;;;29.63;22.57;;;;;;;;;;5072804;28;20435;-73
2021/09/27 03:33:47;;;;;;;31.63;22.30;;;;;;;;;;5072804;28;20434;-73
2021/09/27 03:36:33;;;;;;;26.53;21.60;;;;;;;;;;5073134;28;20450;-73
2021/09/27 03:39:07;;;;;;;27.03;20.77;;;;;;;;;;5072944;28;20445;-72
2021/09/27 03:41:40;;;;;;;25.10;20.87;;;;;;;;;;5072762;28;20440;-72
2021/09/27 03:44:11;;;;;;;25.10;21.20;;;;;;;;;;5074157;28;20444;-74
2021/09/27 03:46:42;;;;;;;22.40;20.10;;;;;;;;;;5076266;28;20421;-72
2021/09/27 03:49:14;;;;;;;23.60;20.97;;;;;;;;;;5076827;28;20446;-73
2021/09/27 03:51:45;;;;;;;22.87;20.43;;;;;;;;;;5076300;28;20461;-72
2021/09/27 03:54:15;;;;;;;25.47;19.10;;;;;;;;;;5076737;28;20439;-73
2021/09/27 03:56:45;;;;;;;24.90;19.23;;;;;;;;;;5076496;28;20436;-72
2021/09/27 03:59:15;;;;;;;22.10;19.17;;;;;;;;;;5076005;28;20451;-72
2021/09/27 04:01:44;;;;;;;24.57;20.20;;;;;;;;;;5076082;28;20482;-73
2021/09/27 04:04:18;;;;;;;24.13;20.10;;;;;;;;;;5076010;28;20436;-73
2021/09/27 04:06:53;;;;;;;23.17;17.93;;;;;;;;;;5076419;28;20863;-73
2021/09/27 04:09:26;;;;;;;21.97;19.00;;;;;;;;;;5076923;28;20425;-73
2021/09/27 04:11:56;;;;;;;19.83;17.83;;;;;;;;;;5076596;28;20429;-73
2021/09/27 04:14:39;;;;;;;22.03;18.67;;;;;;;;;;5076440;28;20438;-72
2021/09/27 04:17:09;;;;;;;20.60;17.50;;;;;;;;;;5075864;28;20437;-72
2021/09/27 04:19:42;;;;;;;22.97;19.03;;;;;;;;;;5076523;28;20943;-72
2021/09/27 04:22:14;;;;;;;23.83;17.30;;;;;;;;;;5076764;28;20432;-75
2021/09/27 04:24:46;;;;;;;18.50;16.50;;;;;;;;;;5076030;28;20426;-75
2021/09/27 04:27:20;;;;;;;21.40;18.23;;;;;;;;;;5076185;28;20971;-78
2021/09/27 04:30:14;;;;;;;21.83;18.10;;;;;;;;;;5075963;28;20472;-77
2021/09/27 04:32:50;;;;;;;20.53;17.87;;;;;;;;;;5076627;28;20433;-77
2021/09/27 04:35:26;;;;;;;21.67;17.90;;;;;;;;;;5087948;28;20437;-77
2021/09/27 04:37:54;;;;;;;22.93;18.97;;;;;;;;;;5096405;28;20445;-77
2021/09/27 04:40:27;;;;;;;19.07;17.03;;;;;;;;;;5095943;28;20433;-78
2021/09/27 04:43:04;;;;;;;24.10;18.17;;;;;;;;;;5095657;28;20430;-77
2021/09/27 04:45:37;;;;;;;21.50;16.70;;;;;;;;;;5096017;28;20512;-78
2021/09/27 04:48:12;;;;;;;20.07;17.87;;;;;;;;;;5095979;28;20468;-77
2021/09/27 04:50:47;;;;;;;20.37;17.10;;;;;;;;;;5095782;28;20436;-77
2021/09/27 04:53:22;;;;;;;19.77;17.57;;;;;;;;;;5095810;28;20437;-78
2021/09/27 04:55:59;;;;;;;21.30;18.03;;;;;;;;;;5095433;28;20451;-79
2021/09/27 04:58:35;;;;;;;22.27;17.47;;;;;;;;;;5095730;28;20443;-79
2021/09/27 05:01:06;;;;;;;22.77;17.87;;;;;;;;;;5095321;28;20462;-78
2021/09/27 05:03:39;;;;;;;18.50;16.50;;;;;;;;;;5095857;28;20471;-78
2021/09/27 05:06:15;;;;;;;19.87;17.73;;;;;;;;;;5075262;28;20455;-79
2021/09/27 05:08:51;;;;;;;22.27;17.60;;;;;;;;;;5075421;28;20483;-77
2021/09/27 05:11:24;;;;;;;22.83;18.17;;;;;;;;;;5075586;28;20449;-78
2021/09/27 05:14:09;;;;;;;20.30;18.13;;;;;;;;;;5075144;28;20900;-79
2021/09/27 05:16:42;;;;;;;23.00;18.00;;;;;;;;;;5074742;28;20430;-78
2021/09/27 05:19:18;;;;;;;20.70;17.47;;;;;;;;;;5074986;28;20446;-79
2021/09/27 05:22:00;;;;;;;19.37;16.13;;;;;;;;;;5074598;28;20431;-77
2021/09/27 05:24:33;;;;;;;22.33;17.80;;;;;;;;;;5070996;28;20523;-78
2021/09/27 05:27:12;;;;;;;18.87;15.70;;;;;;;;;;5074534;28;20897;-80
2021/09/27 05:29:50;;;;;;;18.60;15.30;;;;;;;;;;5074257;28;20572;-76
2021/09/27 05:32:34;;;;;;;18.00;16.20;;;;;;;;;;5074982;28;20424;-73
2021/09/27 05:35:11;;;;;;;18.07;14.83;;;;;;;;;;5074369;28;20504;-74
2021/09/27 05:37:45;;;;;;;26.07;17.10;;;;;;;;;;5074869;28;20442;-74
2021/09/27 05:40:32;;;;;;;16.27;13.97;;;;;;;;;;5074194;28;20423;-74
2021/09/27 05:43:10;;;;;;;20.77;16.30;;;;;;;;;;5074588;28;20425;-74
2021/09/27 05:45:41;;;;;;;17.03;14.77;;;;;;;;;;5074137;28;20439;-74
2021/09/27 05:48:13;;;;;;;18.47;15.40;;;;;;;;;;5074022;28;20461;-73
2021/09/27 05:50:45;;;;;;;22.17;15.80;;;;;;;;;;5074406;28;20433;-73
2021/09/27 05:53:16;;;;;;;18.43;15.80;;;;;;;;;;5074412;28;20437;-74
2021/09/27 05:55:47;;;;;;;22.37;15.07;;;;;;;;;;5074232;28;20444;-74
2021/09/27 05:58:19;;;;;;;19.63;14.80;;;;;;;;;;5074166;28;20440;-73
2021/09/27 06:00:49;;;;;;;17.97;14.73;;;;;;;;;;5074710;28;20516;-73
2021/09/27 06:03:32;;;;;;;21.20;14.33;;;;;;;;;;5074026;28;20448;-74
2021/09/27 06:06:04;;;;;;;16.40;13.73;;;;;;;;;;5074480;28;20534;-73
2021/09/27 06:08:34;;;;;;;16.50;13.60;;;;;;;;;;5073013;28;20468;-73
2021/09/27 06:11:08;;;;;;;18.43;14.57;;;;;;;;;;5073825;28;20443;-73
2021/09/27 06:13:37;;;;;;;17.57;14.77;;;;;;;;;;5073652;28;20429;-73
2021/09/27 06:16:11;;;;;;;18.73;15.70;;;;;;;;;;5073539;28;20484;-73
2021/09/27 06:18:53;;;;;;;21.50;18.20;;;;;;;;;;5073952;28;20523;-73
2021/09/27 06:21:29;;;;;;;23.30;16.97;;;;;;;;;;5073539;28;20527;-74
2021/09/27 06:24:04;;;;;;;17.53;15.63;;;;;;;;;;5074575;28;20435;-73
2021/09/27 06:26:35;;;;;;;19.57;14.30;;;;;;;;;;5073931;28;20992;-73
2021/09/27 06:29:04;;;;;;;29.67;16.37;;;;;;;;;;5073560;28;20503;-74
2021/09/27 06:31:34;;;;;;;21.83;14.20;;;;;;;;;;5074354;28;20444;-74
2021/09/27 06:34:03;;;;;;;22.30;16.23;;;;;;;;;;5073654;28;20440;-73
2021/09/27 06:36:33;;;;;;;18.50;14.33;;;;;;;;;;5073613;28;20441;-74
2021/09/27 06:39:01;;;;;;;26.80;15.67;;;;;;;;;;5073500;28;20447;-73
2021/09/27 06:41:31;;;;;;;16.37;14.37;;;;;;;;;;5074042;28;20447;-73
2021/09/27 06:44:00;;;;;;;19.50;13.50;;;;;;;;;;5073577;28;20441;-74
2021/09/27 06:46:27;;;;;;;16.70;14.10;;;;;;;;;;5073501;28;20438;-73
2021/09/27 06:48:54;;;;;;;16.40;14.23;;;;;;;;;;5073129;28;20478;-73
2021/09/27 06:51:22;;;;;;;20.97;13.77;;;;;;;;;;5073166;28;20450;-73
2021/09/27 06:53:49;;;;;;;17.17;14.57;;;;;;;;;;5073130;28;20944;-74
2021/09/27 06:56:16;;;;;;;15.23;13.00;;;;;;;;;;5073104;28;20937;-73
2021/09/27 06:58:43;;;;;;;15.83;13.07;;;;;;;;;;5073612;28;20440;-73
2021/09/27 07:01:12;;;;;;;14.40;12.90;;;;;;;;;;5073401;28;20438;-73
2021/09/27 07:03:39;;;;;;;16.60;13.20;;;;;;;;;;5073389;28;20774;-74
2021/09/27 07:06:06;;;;;;;16.07;12.73;;;;;;;;;;5073371;28;20442;-75
2021/09/27 07:08:33;;;;;;;15.10;13.50;;;;;;;;;;5073212;28;20480;-73
2021/09/27 07:11:01;;;;;;;19.00;13.77;;;;;;;;;;5074072;28;20441;-73
2021/09/27 07:13:28;;;;;;;16.10;12.70;;;;;;;;;;5073265;28;20437;-74
2021/09/27 07:15:55;;;;;;;13.73;12.33;;;;;;;;;;5073253;28;20803;-73
2021/09/27 07:18:24;;;;;;;16.67;12.20;;;;;;;;;;5073166;28;20795;-74
2021/09/27 07:20:51;;;;;;;14.67;12.60;;;;;;;;;;5076813;28;20816;-74
2021/09/27 07:23:18;;;;;;;15.50;13.17;;;;;;;;;;5076741;28;21017;-74
2021/09/27 07:25:45;;;;;;;15.23;12.07;;;;;;;;;;5077501;28;20451;-74
2021/09/27 07:28:12;;;;;;;14.27;11.90;;;;;;;;;;5076750;28;20487;-74
2021/09/27 07:30:40;;;;;;;14.23;12.70;;;;;;;;;;5077083;28;20907;-74
2021/09/27 07:33:07;;;;;;;15.10;13.43;;;;;;;;;;5076627;28;20532;-74
2021/09/27 07:35:37;;;;;;;14.43;13.03;;;;;;;;;;5076569;28;20436;-73
2021/09/27 07:38:04;;;;;;;15.17;12.70;;;;;;;;;;5077373;28;20525;-74
2021/09/27 07:40:33;;;;;;;14.03;11.60;;;;;;;;;;5077004;28;20529;-74
2021/09/27 07:43:00;;;;;;;16.93;12.03;;;;;;;;;;5076714;28;20441;-74
2021/09/27 07:45:29;;;;;;;13.60;12.07;;;;;;;;;;5077058;28;20444;-73
2021/09/27 07:47:56;;;;;;;14.03;10.47;;;;;;;;;;5076249;28;20443;-73
2021/09/27 07:50:24;;;;;;;12.20;11.10;;;;;;;;;;5076914;28;20434;-73
2021/09/27 07:52:53;;;;;;;18.00;11.67;;;;;;;;;;5077000;28;20444;-73
2021/09/27 07:55:20;;;;;;;12.83;11.50;;;;;;;;;;5076511;28;20516;-73
2021/09/27 07:57:48;;;;;;;13.97;11.60;;;;;;;;;;5076364;28;20436;-73
2021/09/27 08:00:16;;;;;;;14.00;11.13;;;;;;;;;;5076896;28;20446;-73
2021/09/27 08:02:44;;;;;;;16.97;11.77;;;;;;;;;;5076372;28;20433;-73
2021/09/27 08:05:12;;;;;;;11.13;10.00;;;;;;;;;;5076721;28;20470;-73
2021/09/27 08:07:39;;;;;;;12.70;10.50;;;;;;;;;;5076632;28;20446;-73
2021/09/27 08:10:09;;;;;;;12.70;11.40;;;;;;;;;;5075802;28;20484;-73
2021/09/27 08:12:37;;;;;;;13.73;11.03;;;;;;;;;;5075835;28;20553;-74
2021/09/27 08:15:05;;;;;;;15.10;11.10;;;;;;;;;;5075903;28;20532;-74
2021/09/27 08:17:32;;;;;;;15.10;13.37;;;;;;;;;;5075576;28;20443;-73
2021/09/27 08:20:01;;;;;;;13.47;11.50;;;;;;;;;;5076277;28;21006;-73
2021/09/27 08:22:28;;;;;;;12.17;10.87;;;;;;;;;;5076037;28;20459;-74
2021/09/27 08:24:55;;;;;;;15.87;10.33;;;;;;;;;;5075327;28;20452;-73
2021/09/27 08:27:24;;;;;;;13.30;11.47;;;;;;;;;;5075641;28;20949;-74
2021/09/27 08:29:51;;;;;;;15.53;11.40;;;;;;;;;;5075652;28;20503;-74
2021/09/27 08:32:18;;;;;;;17.50;10.63;;;;;;;;;;5074932;28;20452;-74
2021/09/27 08:34:49;;;;;;;14.60;11.77;;;;;;;;;;5075826;28;20453;-74
2021/09/27 08:37:16;;;;;;;12.27;10.93;;;;;;;;;;5076114;28;20437;-74
2021/09/27 08:39:46;;;;;;;11.63;10.43;;;;;;;;;;5075783;28;20815;-74
2021/09/27 08:42:18;;;;;;;13.63;11.50;;;;;;;;;;5075744;28;20463;-74
2021/09/27 08:44:49;;;;;;;12.67;11.37;;;;;;;;;;5076113;28;20499;-74
2021/09/27 08:47:28;;;;;;;13.37;10.90;;;;;;;;;;5075249;28;20427;-74
2021/09/27 08:49:58;;;;;;;12.50;11.20;;;;;;;;;;5075094;28;20464;-74
2021/09/27 08:52:26;;;;;;;15.53;10.57;;;;;;;;;;5075118;28;20474;-74
2021/09/27 08:54:55;;;;;;;14.07;11.43;;;;;;;;;;5075766;28;20823;-74
2021/09/27 08:57:28;;;;;;;14.80;12.13;;;;;;;;;;5075059;28;20438;-74
2021/09/27 08:59:59;;;;;;;13.20;11.13;;;;;;;;;;5075512;28;21012;-74
2021/09/27 09:02:33;;;;;;;13.37;11.80;;;;;;;;;;5075843;28;20517;-74
2021/09/27 09:05:07;;;;;;;13.27;11.87;;;;;;;;;;5075565;28;20438;-74
2021/09/27 09:07:38;;;;;;;14.77;11.80;;;;;;;;;;5075446;28;20428;-73
2021/09/27 09:10:07;;;;;;;12.00;10.87;;;;;;;;;;5074775;28;20975;-74
2021/09/27 09:12:37;;;;;;;13.60;11.30;;;;;;;;;;5074750;28;20443;-74
2021/09/27 09:15:08;;;;;;;12.57;11.37;;;;;;;;;;5074709;28;20504;-74
2021/09/27 09:17:37;;;;;;;12.10;10.40;;;;;;;;;;5075220;28;20442;-74
2021/09/27 09:20:09;;;;;;;12.43;11.10;;;;;;;;;;5075090;28;20537;-74
2021/09/27 09:22:37;;;;;;;10.97;9.87;;;;;;;;;;5075266;28;20439;-74
2021/09/27 09:25:07;;;;;;;12.53;11.20;;;;;;;;;;5075477;28;20439;-74
2021/09/27 09:27:34;;;;;;;13.03;11.73;;;;;;;;;;5074761;28;20480;-74
2021/09/27 09:30:01;;;;;;;12.60;10.83;;;;;;;;;;5074910;28;20495;-74
2021/09/27 09:32:33;;;;;;;11.63;10.03;;;;;;;;;;5074723;28;20848;-74
2021/09/27 09:35:15;;;;;;;13.73;10.63;;;;;;;;;;5074923;28;20435;-74
2021/09/27 09:37:43;;;;;;;12.67;11.40;;;;;;;;;;5074824;28;20521;-74
2021/09/27 09:40:18;;;;;;;19.57;10.73;;;;;;;;;;5074458;28;20444;-74
2021/09/27 09:42:55;;;;;;;11.20;9.67;;;;;;;;;;5073946;28;20911;-73
2021/09/27 09:45:24;;;;;;;11.97;10.87;;;;;;;;;;5074715;28;20436;-73
2021/09/27 09:47:53;;;;;;;14.23;10.03;;;;;;;;;;5074035;28;20439;-74
2021/09/27 09:50:30;;;;;;;11.90;10.80;;;;;;;;;;5074600;28;20493;-74
2021/09/27 09:52:58;;;;;;;11.77;10.50;;;;;;;;;;5074248;28;20427;-74
2021/09/27 09:55:33;;;;;;;13.57;10.83;;;;;;;;;;5074154;28;20480;-74
2021/09/27 09:58:01;;;;;;;11.33;9.50;;;;;;;;;;5074033;28;20424;-74
2021/09/27 10:00:43;;;;;;;11.47;10.20;;;;;;;;;;5074913;28;20852;-73
2021/09/27 10:03:12;;;;;;;10.87;9.70;;;;;;;;;;5074624;28;20518;-74
2021/09/27 10:05:41;;;;;;;12.43;9.57;;;;;;;;;;5073729;28;20438;-74
2021/09/27 10:08:15;;;;;;;11.17;10.17;;;;;;;;;;5074083;28;20444;-74
2021/09/27 10:10:44;;;;;;;9.90;9.00;;;;;;;;;;5073627;28;20475;-75
2021/09/27 10:13:27;;;;;;;10.70;9.60;;;;;;;;;;5073911;28;20440;-73
2021/09/27 10:15:54;;;;;;;9.67;8.63;;;;;;;;;;5074346;28;20432;-74
2021/09/27 10:18:26;;;;;;;9.83;8.83;;;;;;;;;;5074111;28;20441;-74
2021/09/27 10:20:55;;;;;;;11.37;10.20;;;;;;;;;;5074110;28;20452;-74
2021/09/27 10:23:30;;;;;;;10.70;9.20;;;;;;;;;;5073745;28;20468;-73
2021/09/27 10:26:10;;;;;;;10.57;9.20;;;;;;;;;;5074000;28;20480;-73
2021/09/27 10:28:40;;;;;;;14.70;8.83;;;;;;;;;;5073601;28;20470;-73
2021/09/27 10:31:08;;;;;;;9.03;8.13;;;;;;;;;;5073605;28;20478;-73
2021/09/27 10:33:39;;;;;;;10.07;8.20;;;;;;;;;;5073386;28;20444;-73
2021/09/27 10:36:08;;;;;;;9.30;8.17;;;;;;;;;;5074094;28;20443;-73
2021/09/27 10:38:40;;;;;;;8.80;7.43;;;;;;;;;;5073292;28;20505;-74
2021/09/27 10:41:12;;;;;;;8.93;8.00;;;;;;;;;;5074202;28;20490;-74
2021/09/27 10:43:40;;;;;;;8.90;8.07;;;;;;;;;;5073696;28;20431;-74
2021/09/27 10:46:08;;;;;;;8.70;7.90;;;;;;;;;;5073207;28;20445;-74
2021/09/27 10:48:37;;;;;;;9.13;7.33;;;;;;;;;;5073833;28;20444;-74
2021/09/27 10:51:06;;;;;;;8.30;7.40;;;;;;;;;;5073049;28;21008;-74
2021/09/27 10:53:38;;;;;;;7.90;7.20;;;;;;;;;;5072724;28;20443;-75
2021/09/27 10:56:22;;;;;;;8.80;7.07;;;;;;;;;;5073747;28;20436;-74
2021/09/27 10:58:53;;;;;;;7.97;7.00;;;;;;;;;;5074044;28;20455;-74
2021/09/27 11:01:43;;;;;;;11.00;7.83;;;;;;;;;;5073648;28;20435;-73
2021/09/27 11:04:18;;;;;;;7.33;6.60;;;;;;;;;;5073412;28;20760;-73
2021/09/27 11:06:50;;;;;;;7.97;7.20;;;;;;;;;;5072966;28;20967;-74
2021/09/27 11:09:29;;;;;;;7.47;6.77;;;;;;;;;;5073346;28;20457;-74
2021/09/27 11:11:59;;;;;;;7.93;6.93;;;;;;;;;;5073100;28;20512;-74
2021/09/27 11:14:31;;;;;;;7.53;6.00;;;;;;;;;;5073442;28;20448;-74
2021/09/27 11:17:00;;;;;;;6.90;6.27;;;;;;;;;;5073567;28;20458;-74
2021/09/27 11:19:37;;;;;;;6.63;6.00;;;;;;;;;;5072909;28;20437;-74
2021/09/27 11:22:35;;;;;;;5.80;5.27;;;;;;;;;;5073198;28;20516;-74
2021/09/27 11:25:14;;;;;;;6.47;5.90;;;;;;;;;;5072858;28;20426;-74
2021/09/27 11:27:42;;;;;;;9.20;6.63;;;;;;;;;;5073968;28;20502;-74
2021/09/27 11:30:27;;;;;;;6.17;5.67;;;;;;;;;;5073533;28;20489;-74
2021/09/27 11:32:55;;;;;;;5.67;5.00;;;;;;;;;;5073298;28;20442;-74
2021/09/27 11:35:41;;;;;;;6.93;5.90;;;;;;;;;;5073113;28;20442;-74
2021/09/27 11:38:19;;;;;;;6.43;5.83;;;;;;;;;;5072808;28;20442;-74
2021/09/27 11:40:48;;;;;;;6.50;5.90;;;;;;;;;;5073117;28;20425;-74
2021/09/27 11:43:24;;;;;;;6.37;5.77;;;;;;;;;;5072877;28;20488;-73
2021/09/27 11:45:55;;;;;;;6.33;5.80;;;;;;;;;;5072885;28;20491;-74
2021/09/27 11:48:43;;;;;;;5.97;5.47;;;;;;;;;;5073090;28;20448;-74
2021/09/27 11:51:26;;;;;;;9.03;5.43;;;;;;;;;;5072529;28;20472;-74
2021/09/27 11:54:14;;;;;;;10.00;5.70;;;;;;;;;;5073080;28;20509;-74
2021/09/27 11:56:47;;;;;;;7.60;6.17;;;;;;;;;;5066651;28;20540;-74
2021/09/27 11:59:18;;;;;;;6.40;5.57;;;;;;;;;;5072502;28;20450;-74
2021/09/27 12:01:50;;;;;;;6.17;5.60;;;;;;;;;;5072806;28;20428;-75
2021/09/27 12:04:23;;;;;;;5.83;5.33;;;;;;;;;;5073310;28;20517;-74
2021/09/27 12:06:56;;;;;;;5.80;5.30;;;;;;;;;;5074064;28;20877;-74
2021/09/27 12:09:29;;;;;;;6.30;5.60;;;;;;;;;;5076443;28;20433;-74
2021/09/27 12:11:58;;;;;;;6.90;5.43;;;;;;;;;;5075985;28;20762;-74
2021/09/27 12:14:27;;;;;;;6.17;5.17;;;;;;;;;;5076406;28;20541;-74
2021/09/27 12:16:59;;;;;;;8.50;5.50;;;;;;;;;;5076181;28;20445;-74
2021/09/27 12:19:27;;;;;;;6.37;5.87;;;;;;;;;;5076257;28;20508;-74
2021/09/27 12:21:57;;;;;;;6.40;5.57;;;;;;;;;;5076018;28;20447;-73
2021/09/27 12:24:25;;;;;;;6.07;5.00;;;;;;;;;;5075870;28;20451;-74
2021/09/27 12:26:54;;;;;;;4.73;3.80;;;;;;;;;;5075528;28;20445;-74
2021/09/27 12:29:23;;;;;;;5.43;4.53;;;;;;;;;;5076169;28;20476;-76
2021/09/27 12:31:52;;;;;;;6.50;4.70;;;;;;;;;;5075802;28;20487;-73
2021/09/27 12:34:21;;;;;;;6.40;4.40;;;;;;;;;;5075642;28;20532;-73
2021/09/27 12:36:48;;;;;;;5.33;4.80;;;;;;;;;;5076083;28;20438;-73
2021/09/27 12:39:20;;;;;;;4.60;3.90;;;;;;;;;;5075355;28;20447;-73
2021/09/27 12:41:47;;;;;;;4.20;3.90;;;;;;;;;;5075709;28;20516;-74
2021/09/27 12:44:16;;;;;;;4.90;4.00;;;;;;;;;;5075172;28;20938;-73
2021/09/27 12:46:44;;;;;;;4.50;4.10;;;;;;;;;;5075564;28;20531;-78
2021/09/27 12:49:12;;;;;;;4.83;3.87;;;;;;;;;;5075534;28;20550;-75
2021/09/27 12:51:42;;;;;;;4.23;3.73;;;;;;;;;;5075342;28;20921;-77
2021/09/27 12:54:14;;;;;;;6.00;4.30;;;;;;;;;;5075036;28;20922;-77
2021/09/27 12:56:43;;;;;;;6.50;3.50;;;;;;;;;;5075499;28;20433;-77
2021/09/27 12:59:13;;;;;;;3.83;3.53;;;;;;;;;;5075441;28;20440;-75
2021/09/27 13:01:43;;;;;;;4.53;4.10;;;;;;;;;;5075320;28;20431;-77
2021/09/27 13:04:12;;;;;;;9.03;5.60;;;;;;;;;;5075130;28;20433;-76
2021/09/27 13:06:54;;;;;;;4.13;3.83;;;;;;;;;;5075014;28;20447;-76
2021/09/27 13:09:23;;;;;;;4.87;4.57;;;;;;;;;;5075505;28;20436;-77
2021/09/27 13:11:52;;;;;;;5.27;4.63;;;;;;;;;;5074618;28;20479;-78
2021/09/27 13:14:21;;;;;;;5.30;4.80;;;;;;;;;;5074769;28;20795;-74
2021/09/27 13:16:49;;;;;;;4.63;4.23;;;;;;;;;;5094284;28;20479;-77
2021/09/27 13:19:36;;;;;;;5.33;4.93;;;;;;;;;;5094868;28;20527;-76
2021/09/27 13:22:04;;;;;;;4.83;4.40;;;;;;;;;;5094961;28;20439;-76
2021/09/27 13:24:31;;;;;;;5.20;4.80;;;;;;;;;;5094979;28;20442;-76
2021/09/27 13:27:05;;;;;;;7.60;4.50;;;;;;;;;;5095243;28;20528;-75
2021/09/27 13:29:35;;;;;;;5.00;3.80;;;;;;;;;;5094796;28;20480;-76
2021/09/27 13:32:04;;;;;;;5.17;4.27;;;;;;;;;;5094780;28;20470;-76
2021/09/27 13:34:33;;;;;;;5.33;3.97;;;;;;;;;;5094509;28;20440;-76
2021/09/27 13:37:01;;;;;;;8.50;4.70;;;;;;;;;;5094915;28;20787;-77
2021/09/27 13:39:31;;;;;;;6.67;4.40;;;;;;;;;;5094810;28;20444;-78
2021/09/27 13:42:04;;;;;;;5.60;4.20;;;;;;;;;;5094423;28;20504;-72
2021/09/27 13:44:35;;;;;;;5.90;3.70;;;;;;;;;;5095070;28;20802;-77
2021/09/27 13:47:04;;;;;;;5.87;4.10;;;;;;;;;;5094931;28;20927;-77
2021/09/27 13:49:32;;;;;;;4.37;3.97;;;;;;;;;;5094250;28;20523;-77
2021/09/27 13:51:59;;;;;;;5.30;4.43;;;;;;;;;;5093833;28;20559;-78
2021/09/27 13:54:27;;;;;;;4.70;4.17;;;;;;;;;;5094185;28;20444;-76
2021/09/27 13:56:59;;;;;;;7.33;4.60;;;;;;;;;;5094305;28;20532;-76
2021/09/27 13:59:26;;;;;;;7.83;4.80;;;;;;;;;;5094119;28;20471;-77
2021/09/27 14:01:55;;;;;;;4.67;4.20;;;;;;;;;;5094778;28;20446;-77
2021/09/27 14:04:22;;;;;;;4.47;4.07;;;;;;;;;;5094296;28;20804;-76
2021/09/27 14:06:49;;;;;;;4.90;4.47;;;;;;;;;;5094404;28;20428;-76
2021/09/27 14:09:17;;;;;;;5.10;4.17;;;;;;;;;;5093869;28;20446;-76
2021/09/27 14:11:44;;;;;;;4.87;4.47;;;;;;;;;;5094935;28;20865;-77
2021/09/27 14:14:12;;;;;;;7.13;4.33;;;;;;;;;;5094108;28;20438;-81
2021/09/27 14:16:39;;;;;;;7.33;4.47;;;;;;;;;;5093898;28;20443;-74
2021/09/27 14:19:07;;;;;;;5.10;4.50;;;;;;;;;;5094217;28;20797;-80
2021/09/27 14:21:35;;;;;;;5.43;4.00;;;;;;;;;;5093762;28;20970;-85
2021/09/27 14:24:05;;;;;;;4.30;4.00;;;;;;;;;;5094466;28;20528;-79
2021/09/27 14:26:33;;;;;;;5.10;4.67;;;;;;;;;;5094080;28;20786;-78
2021/09/27 14:29:01;;;;;;;4.67;4.37;;;;;;;;;;5092656;28;20569;-78
2021/09/27 14:31:28;;;;;;;4.90;3.90;;;;;;;;;;5093856;28;20486;-80
2021/09/27 14:33:55;;;;;;;5.20;4.70;;;;;;;;;;5093555;28;20938;-79
2021/09/27 14:36:24;;;;;;;4.80;4.13;;;;;;;;;;5093471;28;20436;-80
2021/09/27 14:38:52;;;;;;;6.80;4.03;;;;;;;;;;5094078;28;20774;-79
2021/09/27 14:41:19;;;;;;;3.97;3.63;;;;;;;;;;5093622;28;20530;-80
2021/09/27 14:43:47;;;;;;;4.97;4.10;;;;;;;;;;5093606;28;20498;-78
2021/09/27 14:46:15;;;;;;;4.03;3.73;;;;;;;;;;5093212;28;20530;-81
2021/09/27 14:48:48;;;;;;;4.77;4.30;;;;;;;;;;5093664;28;20791;-82
2021/09/27 14:51:16;;;;;;;6.13;4.17;;;;;;;;;;5093626;28;20470;-83